Racecast

Carl Paraon III

JDC3 Elite (VA) · 8 · Compare head to head

Athlete rating
Races 72
Seasons 2 2025 — 2026
Speed rating — all races

Track & Field

TF speed rating

2026 TF

JDC3 Elite (VA) · Grade 8

Date Meet Event Result Place Rating Difficulty PR/SR Flags
2026-06-13 AAU Virginia District Qualifier - South lj ND -0.033
2026-06-13 AAU Virginia District Qualifier - South 100m 13.97 2nd · 1st on team -0.033
2026-06-13 AAU Virginia District Qualifier - South 200m 28.93 3rd · 1st on team -0.033 ★PR SR
2026-05-30 Va Beach Flames Invite 100m 13.97 10th · 2nd on team -0.023 PR SR
2026-05-30 Va Beach Flames Invite 100m 13.86 7th · 1st on team -0.023 ★PR SR
2026-05-30 Va Beach Flames Invite 200m 29.23 4th · 1st on team -0.023 PR SR
2026-05-24 HR Hurricanes CAT 5 Invite lj NM -0.035
2026-05-24 HR Hurricanes CAT 5 Invite 100m 14.6 13th · 2nd on team -0.035
2026-05-24 HR Hurricanes CAT 5 Invite 200m 29.59 4th · 1st on team -0.035 PR SR
2026-05-24 HR Hurricanes CAT 5 Invite 100m 14.03 5th · 1st on team -0.035 PR SR
2026-05-16 2026 Technique Relays lj 11' 5" -0.035
2026-05-16 2026 Technique Relays 100m 14.11 2nd · 1st on team -0.035 PR SR
2026-05-09 VA "Legends" T & F Youth Invite lj FOUL -0.033
2026-05-09 VA "Legends" T & F Youth Invite 100m 14.8 9th · 1st on team -0.033 SR
2026-05-09 VA "Legends" T & F Youth Invite 200m 31.15 14th · 1st on team -0.033
2026-05-02 The DMV Track and Field Classic javelin DNS -0.021
2026-03-06 AAU Indoor National Championship 60m 8.97 15th · 2nd on team -0.036 PR SR
2026-03-06 AAU Indoor National Championship 60m 8.96 14th · 1st on team -0.036 ★PR SR
2026-02-22 3rd Annual HRH Winter Storm Classic 55m 8.44 16th · 1st on team -0.024
2026-02-22 3rd Annual HRH Winter Storm Classic 200m 31.73 13th · 1st on team -0.024
2026-01-31 BWSP Queens and Kings - Meet 3 400m 1:19.98 15th · 3rd on team -0.024 ★PR SR
2026-01-31 BWSP Queens and Kings - Meet 3 200m 32.13 12th · 2nd on team -0.024
2026-01-31 BWSP Queens and Kings - Meet 3 55m 8.47 16th · 1st on team -0.024
2026-01-17 BWSP Queens and Kings - Meet 2 200m 31.12 7th · 1st on team -0.024 SR
2026-01-17 BWSP Queens and Kings - Meet 2 55m 8.37 14th · 1st on team -0.024 ★PR SR
2026-01-04 Coach Miami Presents The DMV's INDOOR SPRINTFEST 60m 9.18 18th · 1st on team -0.036 SR
2026-01-04 Coach Miami Presents The DMV's INDOOR SPRINTFEST 200m 31.87 14th · 1st on team -0.036 SR

2025 TF

JDC3 Elite (VA) · Grade 7

Date Meet Event Result Place Rating Difficulty PR/SR Flags
2025-07-07 AAU Primary Results: Top 8 Combined Age Groups javelin 17.07m -0.031
2025-07-07 AAU Primary Results: Top 8 Combined Age Groups 200m 32.54 47th · 1st on team -0.031
2025-07-07 AAU Primary Results: Top 8 Combined Age Groups 100m 14.78 22nd · 1st on team -0.031
2025-07-06 AAU Primary National Championships javelin 17.07m -0.031
2025-07-06 AAU Primary National Championships 200m 32.54 29th · 1st on team -0.031
2025-07-06 AAU Primary National Championships 100m 14.78 21st · 1st on team -0.031
2025-06-25 AAU Track & Field Region 5 Qualifier 100m 14.8 1st · 1st on team -0.034
2025-06-25 AAU Track & Field Region 5 Qualifier 100m 14.94 6th · 2nd on team -0.034
2025-06-25 AAU Track & Field Region 5 Qualifier 200m 31.08 6th · 2nd on team -0.034
2025-06-25 AAU Track & Field Region 5 Qualifier 200m 30.9 2nd · 1st on team -0.034
2025-06-15 AAU Virginia District Qualifier (Northern) lj FOUL -0.027
2025-06-15 AAU Virginia District Qualifier (Northern) 200m 31.18 2nd · 1st on team -0.027
2025-06-15 AAU Virginia District Qualifier (Northern) 100m 15.11 1st · 1st on team -0.027
2025-05-31 Va Beach Flames Invite javelin 57' 5" -0.023
2025-05-31 Va Beach Flames Invite 100m 15 1st · 1st on team -0.023
2025-05-31 Va Beach Flames Invite 200m 32.78 3rd · 1st on team -0.023
2025-05-31 Va Beach Flames Invite 100m 15.05 2nd · 2nd on team -0.023
2025-05-25 HR Hurricanes CAT 5 Invite javelin DNS -0.035
2025-05-25 HR Hurricanes CAT 5 Invite 100m 14.62 1st · 1st on team -0.035 PR SR
2025-05-25 HR Hurricanes CAT 5 Invite 400m 1:30.23 10th · 2nd on team -0.035
2025-05-25 HR Hurricanes CAT 5 Invite 100m 15.02 3rd · 2nd on team -0.035
2025-05-10 Legends Invitational hosted by Eastend Lightning lj FOUL -0.030
2025-05-10 Legends Invitational hosted by Eastend Lightning 100m 14.92 2nd · 1st on team -0.030 PR SR
2025-05-10 Legends Invitational hosted by Eastend Lightning 200m 32.84 1st · 1st on team -0.030
2025-04-27 TRACK 757 Classic javelin 14.02m -0.029
2025-04-27 TRACK 757 Classic 100m 15.1 1st · 1st on team -0.029 PR SR
2025-04-27 TRACK 757 Classic 200m 31.7 2nd · 1st on team -0.029
2025-04-27 TRACK 757 Classic 100m 15.33 2nd · 2nd on team -0.029
2025-03-07 AAU Indoor National Championships 60m 9.18 3rd · 1st on team -0.036 PR SR
2025-03-07 AAU Indoor National Championships 200m 30.81 5th · 1st on team -0.036 PR SR
2025-03-07 AAU Indoor National Championships 60m 9.22 4th · 2nd on team -0.036
2025-03-07 AAU Indoor National Championships 200m 31.84 10th · 2nd on team -0.036
2025-02-22 BWSP Queens and Kings Championships 400m 1:25.51 6th · 2nd on team -0.014
2025-02-22 BWSP Queens and Kings Championships 55m 8.58 1st · 1st on team -0.014 PR SR
2025-02-22 BWSP Queens and Kings Championships 55m 8.68 2nd · 2nd on team -0.014
2025-02-02 Track757 Invite lj 3.04m -0.036
2025-02-02 Track757 Invite 60m 9.34 1st · 1st on team -0.036 PR SR
2025-02-02 Track757 Invite 200m 32.34 2nd · 1st on team -0.036 PR SR
2025-02-02 Track757 Invite 60m 9.6 6th · 2nd on team -0.036
2025-01-18 BWSP Queens and Kings - Meet 2 lj 9' 8.25" -0.014
2025-01-18 BWSP Queens and Kings - Meet 2 400m 1:20.95 4th · 1st on team -0.014 PR SR
2025-01-04 BWSP Queens and Kings - Meet 1 lj 10' 11.50" -0.024
2025-01-04 BWSP Queens and Kings - Meet 1 200m 33.1 2nd · 1st on team -0.024 PR SR
2025-01-04 BWSP Queens and Kings - Meet 1 55m 8.89 7th · 2nd on team -0.024 PR SR
2025-01-04 BWSP Queens and Kings - Meet 1 55m 8.73 4th · 1st on team -0.024 PR SR